Ostvern — LGVO — position and weather

sailwx.info

Track history (hours):
 
Tides and Currents Weather Stations Pressure Air Temp Water Temp Dewpoint Dewpoint Depression Visibility Wind Speed Wind Dir Waves Ship Positions

Ostvern

Last reported at 2018-Jan-30 18:46 UTC. Time now 2018-Aug-17 22:39 UTC.
Position N 69°45' E 030°04'.
Warning: this ship's position is months out of date.

Length 15 m; draft 4.4 m.

Type: Pilot. MMSI: 257395500.

Date/timePositionNaut miles runAvg speedWind from/ knotsBaromVisibWave heightAir tempDewpointWater temp
2018-Jan-30 18:46N 69°45' E 030°04'0 0.6
2018-Jan-30 18:16N 69°46' E 030°05'2 8.0
2018-Jan-30 18:01N 69°44' E 030°02'0 0.3
2018-Jan-30 17:05N 69°44' E 030°02'0 0.0
2018-Jan-30 16:59N 69°44' E 030°02'0 0.0
2018-Jan-30 16:30N 69°44' E 030°02'1 1.3
2018-Jan-30 16:00N 69°44' E 030°03'3 6.6
2018-Jan-30 15:30N 69°47' E 030°06'3 7.1
2018-Jan-30 15:00N 69°44' E 030°02'0 0.8
2018-Jan-30 14:29N 69°44' E 030°02'0 0.0
2018-Jan-30 13:29N 69°44' E 030°02'0 0.0
2018-Jan-30 13:00N 69°44' E 030°02'0 0.0
2018-Jan-30 12:30N 69°44' E 030°02'0 0.0
2018-Jan-30 12:00N 69°44' E 030°02'0 0.0
2018-Jan-30 11:30N 69°44' E 030°02'0 0.0
2018-Jan-30 10:30N 69°44' E 030°02'0 0.0
2018-Jan-30 09:30N 69°44' E 030°02'0 0.0
2018-Jan-30 09:00N 69°44' E 030°02'0 0.0
2018-Jan-30 08:30N 69°44' E 030°02'0 0.0
2018-Jan-30 07:59N 69°44' E 030°02'0 0.0
2018-Jan-30 07:30N 69°44' E 030°02'0 0.0
2018-Jan-30 06:59N 69°44' E 030°02'  
Track history (hours):
 
Tides and Currents Weather Stations Pressure Air Temp Water Temp Dewpoint Dewpoint Depression Visibility Wind Speed Wind Dir Waves Ship Positions

Ostvern

Last reported at 2018-Jan-30 18:46 UTC. Time now 2018-Aug-17 22:39 UTC.
Position N 69°45' E 030°04'.
Warning: this ship's position is months out of date.

Length 15 m; draft 4.4 m.

Type: Pilot. MMSI: 257395500.

Date/timePositionNaut miles runAvg speedWind from/ knotsBaromVisibWave heightAir tempDewpointWater temp
2018-Jan-30 18:46N 69°45' E 030°04'0 0.6
2018-Jan-30 18:16N 69°46' E 030°05'2 8.0
2018-Jan-30 18:01N 69°44' E 030°02'0 0.3
2018-Jan-30 17:05N 69°44' E 030°02'0 0.0
2018-Jan-30 16:59N 69°44' E 030°02'0 0.0
2018-Jan-30 16:30N 69°44' E 030°02'1 1.3
2018-Jan-30 16:00N 69°44' E 030°03'3 6.6
2018-Jan-30 15:30N 69°47' E 030°06'3 7.1
2018-Jan-30 15:00N 69°44' E 030°02'0 0.8
2018-Jan-30 14:29N 69°44' E 030°02'0 0.0
2018-Jan-30 13:29N 69°44' E 030°02'0 0.0
2018-Jan-30 13:00N 69°44' E 030°02'0 0.0
2018-Jan-30 12:30N 69°44' E 030°02'0 0.0
2018-Jan-30 12:00N 69°44' E 030°02'0 0.0
2018-Jan-30 11:30N 69°44' E 030°02'0 0.0
2018-Jan-30 10:30N 69°44' E 030°02'0 0.0
2018-Jan-30 09:30N 69°44' E 030°02'0 0.0
2018-Jan-30 09:00N 69°44' E 030°02'0 0.0
2018-Jan-30 08:30N 69°44' E 030°02'0 0.0
2018-Jan-30 07:59N 69°44' E 030°02'0 0.0
2018-Jan-30 07:30N 69°44' E 030°02'0 0.0
2018-Jan-30 06:59N 69°44' E 030°02'  

Dump ship's entire track history